Time;durP1;ratioP1;P1;durP2;ratioP2;P2;SDS_P1;SDS_P2;PMS_P1;PMS_P2;Temp;Humidity;BMP_temperature;BMP_pressure;BME280_temperature;BME280_humidity;BME280_pressure;Samples;Min_cycle;Max_cycle;Signal;HPM_P1;HPM_P2
2023/04/15 00:01:12;0.00;0.00;0.62;0.00;0.00;0.62;1.60;1.00;;;24.90;22.20;;;;;;2268057;61;20355;-64
2023/04/15 00:03:57;0.00;0.00;0.62;0.00;0.00;0.62;1.90;1.20;;;24.90;22.20;;;;;;2268593;61;20417;-64
2023/04/15 00:06:41;0.00;0.00;0.62;0.00;0.00;0.62;2.20;1.53;;;24.80;22.20;;;;;;2268007;61;20379;-64
2023/04/15 00:09:26;0.00;0.00;0.62;0.00;0.00;0.62;2.47;1.50;;;24.80;22.10;;;;;;2268106;61;20383;-62
2023/04/15 00:12:11;0.00;0.00;0.62;0.00;0.00;0.62;1.70;1.17;;;24.80;22.10;;;;;;2269392;61;20391;-62
2023/04/15 00:14:57;0.00;0.00;0.62;0.00;0.00;0.62;1.60;1.10;;;24.80;22.10;;;;;;2269496;61;20417;-63
2023/04/15 00:17:43;0.00;0.00;0.62;0.00;0.00;0.62;1.50;1.10;;;24.80;22.10;;;;;;2269230;61;20464;-63
2023/04/15 00:20:28;0.00;0.00;0.62;0.00;0.00;0.62;2.23;1.57;;;24.80;22.10;;;;;;2268993;61;20394;-64
2023/04/15 00:23:13;0.00;0.00;0.62;0.00;0.00;0.62;1.80;1.30;;;24.80;22.10;;;;;;2269294;61;20356;-61
2023/04/15 00:25:57;0.00;0.00;0.62;0.00;0.00;0.62;1.60;1.20;;;24.80;22.20;;;;;;2269296;61;20453;-64
2023/04/15 00:28:42;0.00;0.00;0.62;0.00;0.00;0.62;1.70;1.30;;;24.80;22.20;;;;;;2269275;61;20379;-60
2023/04/15 00:31:27;0.00;0.00;0.62;0.00;0.00;0.62;1.60;1.20;;;24.80;22.10;;;;;;2269057;61;20362;-62
2023/04/15 00:34:14;0.00;0.00;0.62;0.00;0.00;0.62;1.60;1.10;;;24.80;22.20;;;;;;2268742;61;20501;-61
2023/04/15 00:37:00;0.00;0.00;0.62;0.00;0.00;0.62;1.90;1.20;;;24.80;22.20;;;;;;2268741;61;20986;-62
2023/04/15 00:39:45;0.00;0.00;0.62;0.00;0.00;0.62;1.63;1.20;;;24.80;22.20;;;;;;2268791;61;21158;-62
2023/04/15 00:42:30;0.00;0.00;0.62;0.00;0.00;0.62;1.67;1.17;;;24.80;22.20;;;;;;2266106;61;20359;-64
2023/04/15 00:45:15;0.00;0.00;0.62;0.00;0.00;0.62;1.60;1.00;;;24.80;22.20;;;;;;2269023;61;20351;-62
2023/04/15 00:48:00;0.00;0.00;0.62;0.00;0.00;0.62;1.90;1.40;;;24.80;22.20;;;;;;2266382;61;20417;-62
2023/04/15 00:50:46;0.00;0.00;0.62;0.00;0.00;0.62;1.90;1.10;;;24.80;22.70;;;;;;2268011;61;20554;-60
2023/04/15 00:53:31;0.00;0.00;0.62;0.00;0.00;0.62;1.50;1.20;;;24.80;22.10;;;;;;2268919;61;20363;-61
2023/04/15 00:56:16;0.00;0.00;0.62;0.00;0.00;0.62;2.10;1.27;;;24.80;22.70;;;;;;2269302;61;21094;-61
2023/04/15 00:59:01;0.00;0.00;0.62;0.00;0.00;0.62;2.10;1.23;;;24.80;22.20;;;;;;2268855;61;20889;-60
2023/04/15 01:01:46;0.00;0.00;0.62;0.00;0.00;0.62;1.60;1.20;;;24.80;22.20;;;;;;2266100;61;20421;-59
2023/04/15 01:04:31;0.00;0.00;0.62;0.00;0.00;0.62;1.80;1.30;;;24.70;22.20;;;;;;2269227;61;20483;-64
2023/04/15 01:07:17;0.00;0.00;0.62;0.00;0.00;0.62;2.00;1.60;;;24.70;22.20;;;;;;2265838;61;20923;-60
2023/04/15 01:10:02;0.00;0.00;0.62;0.00;0.00;0.62;2.20;1.47;;;24.70;22.10;;;;;;2268968;61;20363;-63
2023/04/15 01:12:47;0.00;0.00;0.62;0.00;0.00;0.62;1.60;1.07;;;24.80;22.20;;;;;;2268665;61;20387;-62
2023/04/15 01:15:32;0.00;0.00;0.62;0.00;0.00;0.62;1.83;1.23;;;24.70;22.20;;;;;;2269033;61;20405;-61
2023/04/15 01:18:17;0.00;0.00;0.62;0.00;0.00;0.62;1.60;1.17;;;24.70;22.20;;;;;;2269479;61;20902;-64
2023/04/15 01:21:04;0.00;0.00;0.62;0.00;0.00;0.62;1.73;1.20;;;24.70;22.20;;;;;;2268751;61;20769;-62
2023/04/15 01:23:52;0.00;0.00;0.62;0.00;0.00;0.62;1.53;1.00;;;24.70;22.20;;;;;;2268991;61;20501;-63
2023/04/15 01:26:39;0.00;0.00;0.62;0.00;0.00;0.62;1.57;1.10;;;24.70;22.20;;;;;;2265864;61;20391;-61
2023/04/15 01:29:26;0.00;0.00;0.62;0.00;0.00;0.62;2.03;1.30;;;24.70;22.20;;;;;;2268350;61;20379;-62
2023/04/15 01:32:11;0.00;0.00;0.62;0.00;0.00;0.62;1.60;1.07;;;24.70;22.20;;;;;;2265987;61;20363;-62
2023/04/15 01:34:56;0.00;0.00;0.62;0.00;0.00;0.62;1.90;1.30;;;24.70;22.20;;;;;;2268318;61;20359;-60
2023/04/15 01:37:42;0.00;0.00;0.62;0.00;0.00;0.62;1.80;1.20;;;24.70;22.20;;;;;;2265994;61;20375;-65
2023/04/15 01:40:26;0.00;0.00;0.62;0.00;0.00;0.62;1.70;1.03;;;24.70;22.20;;;;;;2268961;61;20399;-60
2023/04/15 01:43:12;0.00;0.00;0.62;0.00;0.00;0.62;1.80;1.17;;;24.70;22.20;;;;;;2268387;61;20412;-59
2023/04/15 01:46:00;0.00;0.00;0.62;0.00;0.00;0.62;1.30;0.90;;;24.70;22.20;;;;;;2268710;61;20506;-62
2023/04/15 01:48:45;0.00;0.00;0.62;0.00;0.00;0.62;1.50;1.03;;;24.70;22.20;;;;;;2268862;61;20390;-64
2023/04/15 01:51:30;0.00;0.00;0.62;0.00;0.00;0.62;1.50;0.97;;;24.70;22.20;;;;;;2268652;61;20359;-64
2023/04/15 01:54:15;0.00;0.00;0.62;0.00;0.00;0.62;1.33;0.97;;;24.70;22.20;;;;;;2268798;61;20762;-61
2023/04/15 01:57:01;0.00;0.00;0.62;0.00;0.00;0.62;1.70;1.07;;;24.70;22.20;;;;;;2268684;61;20374;-65
2023/04/15 01:59:47;0.00;0.00;0.62;0.00;0.00;0.62;1.47;0.90;;;24.70;22.20;;;;;;2265573;61;20371;-64
2023/04/15 02:02:33;0.00;0.00;0.62;0.00;0.00;0.62;2.23;1.13;;;24.60;22.20;;;;;;2269171;61;20931;-62
2023/04/15 02:05:18;0.00;0.00;0.62;0.00;0.00;0.62;1.60;0.93;;;24.70;22.20;;;;;;2268215;61;20856;-58
2023/04/15 02:08:05;0.00;0.00;0.62;0.00;0.00;0.62;1.33;0.80;;;24.70;22.20;;;;;;2265634;61;20390;-62
2023/04/15 02:10:50;0.00;0.00;0.62;0.00;0.00;0.62;1.73;1.03;;;24.60;22.20;;;;;;2265509;61;20406;-61
2023/04/15 02:13:35;0.00;0.00;0.62;0.00;0.00;0.62;1.90;1.33;;;24.70;22.80;;;;;;2268755;61;20386;-60
2023/04/15 02:16:21;0.00;0.00;0.62;0.00;0.00;0.62;1.60;1.00;;;24.60;22.20;;;;;;2265849;61;20359;-61
2023/04/15 02:19:06;0.00;0.00;0.62;0.00;0.00;0.62;1.40;0.90;;;24.60;22.20;;;;;;2268165;61;20379;-64
2023/04/15 02:21:51;0.00;0.00;0.62;0.00;0.00;0.62;1.40;0.80;;;24.60;22.20;;;;;;2268925;61;20405;-65
2023/04/15 02:24:36;0.00;0.00;0.62;0.00;0.00;0.62;1.60;1.17;;;24.60;22.20;;;;;;2268801;61;20358;-64
2023/04/15 02:27:24;0.00;0.00;0.62;0.00;0.00;0.62;1.70;1.00;;;24.60;22.20;;;;;;2276759;55;20930;31
2023/04/15 02:30:09;0.00;0.00;0.62;0.00;0.00;0.62;1.50;0.90;;;24.60;22.20;;;;;;2263158;61;20392;-63
2023/04/15 02:32:55;0.00;0.00;0.62;0.00;0.00;0.62;1.40;1.00;;;24.60;22.20;;;;;;2261528;61;20360;-62
2023/04/15 02:35:44;0.00;0.00;0.62;0.00;0.00;0.62;1.73;1.13;;;24.60;22.20;;;;;;2261372;61;20400;-63
2023/04/15 02:38:30;0.00;0.00;0.62;0.00;0.00;0.62;1.50;1.00;;;24.60;22.20;;;;;;2263622;61;20837;-62
2023/04/15 02:41:15;0.00;0.00;0.62;0.00;0.00;0.62;1.60;0.93;;;24.60;22.20;;;;;;2268730;61;21009;-63
2023/04/15 02:44:02;0.00;0.00;0.62;0.00;0.00;0.62;1.47;0.93;;;24.60;22.20;;;;;;2265415;61;20489;-64
2023/04/15 02:46:51;0.00;0.00;0.62;0.00;0.00;0.62;1.60;1.00;;;24.60;22.20;;;;;;2265351;61;20381;-62
2023/04/15 02:49:39;0.00;0.00;0.62;0.00;0.00;0.62;1.40;0.80;;;24.60;22.20;;;;;;2265137;61;20763;-62
2023/04/15 02:52:24;0.00;0.00;0.62;0.00;0.00;0.62;1.60;1.10;;;24.60;22.20;;;;;;2265471;61;20363;-64
2023/04/15 02:55:09;0.00;0.00;0.62;0.00;0.00;0.62;1.50;0.93;;;24.60;22.20;;;;;;2265490;61;20386;-62
2023/04/15 02:57:57;0.00;0.00;0.62;0.00;0.00;0.62;1.70;1.03;;;24.60;22.30;;;;;;2268301;61;20371;-61
2023/04/15 03:00:41;0.00;0.00;0.62;0.00;0.00;0.62;1.33;0.80;;;24.50;22.20;;;;;;2268221;61;20432;-62
2023/04/15 03:03:27;0.00;0.00;0.62;0.00;0.00;0.62;1.60;1.00;;;24.60;22.20;;;;;;2268674;61;20401;-58
2023/04/15 03:06:13;0.00;0.00;0.62;0.00;0.00;0.62;1.70;0.90;;;24.60;22.30;;;;;;2265482;61;20784;-61
2023/04/15 03:08:59;0.00;0.00;0.62;0.00;0.00;0.62;1.60;1.00;;;24.50;22.20;;;;;;2268753;61;20432;-62
2023/04/15 03:11:45;0.00;0.00;0.62;0.00;0.00;0.62;1.30;0.73;;;24.50;22.20;;;;;;2265470;61;20939;-64
2023/04/15 03:14:30;0.00;0.00;0.62;0.00;0.00;0.62;1.40;0.90;;;24.50;22.20;;;;;;2265381;61;20355;-62
2023/04/15 03:17:15;0.00;0.00;0.62;0.00;0.00;0.62;1.40;0.87;;;24.50;22.20;;;;;;2268771;61;20350;-59
2023/04/15 03:20:02;0.00;0.00;0.62;0.00;0.00;0.62;1.40;0.90;;;24.50;22.20;;;;;;2267758;61;20401;-62
2023/04/15 03:22:48;0.00;0.00;0.62;0.00;0.00;0.62;1.60;1.00;;;24.50;22.20;;;;;;2265677;61;20366;-58
2023/04/15 03:25:33;0.00;0.00;0.62;0.00;0.00;0.62;1.70;0.93;;;24.50;22.20;;;;;;2265297;61;20398;-63
2023/04/15 03:28:18;0.00;0.00;0.62;0.00;0.00;0.62;1.50;1.00;;;24.50;22.20;;;;;;2265171;61;20888;-62
2023/04/15 03:31:03;0.00;0.00;0.62;0.00;0.00;0.62;1.37;0.97;;;24.50;22.20;;;;;;2268477;61;20542;-62
2023/04/15 03:33:49;0.00;0.00;0.62;0.00;0.00;0.62;1.57;1.00;;;24.50;22.20;;;;;;2268144;61;20390;-64
2023/04/15 03:36:34;0.00;0.00;0.62;0.00;0.00;0.62;2.33;1.40;;;24.50;22.20;;;;;;2265408;61;20822;-64
2023/04/15 03:39:20;0.00;0.00;0.62;0.00;0.00;0.62;1.30;0.80;;;24.50;22.20;;;;;;2268602;61;20418;-64
2023/04/15 03:42:05;0.00;0.00;0.62;0.00;0.00;0.62;1.40;0.90;;;24.50;22.20;;;;;;2265265;61;20371;-65
2023/04/15 03:44:50;0.00;0.00;0.62;0.00;0.00;0.62;1.70;0.90;;;24.50;22.20;;;;;;2268040;61;20898;-63
2023/04/15 03:47:34;0.00;0.00;0.62;0.00;0.00;0.62;1.40;0.83;;;24.50;22.20;;;;;;2269012;61;20399;-63
2023/04/15 03:50:19;0.00;0.00;0.62;0.00;0.00;0.62;1.50;1.00;;;24.40;22.10;;;;;;2269266;61;20884;-61
2023/04/15 03:53:04;0.00;0.00;0.62;0.00;0.00;0.62;1.40;0.80;;;24.40;22.20;;;;;;2269023;61;20414;-64
2023/04/15 03:55:51;0.00;0.00;0.62;0.00;0.00;0.62;1.40;0.90;;;24.40;22.20;;;;;;2269118;61;20922;-61
2023/04/15 03:58:35;0.00;0.00;0.62;0.00;0.00;0.62;1.43;0.87;;;24.40;22.20;;;;;;2269406;61;20587;-60
2023/04/15 04:01:20;0.00;0.00;0.62;0.00;0.00;0.62;1.43;1.00;;;24.40;22.20;;;;;;2269008;61;20395;-61
2023/04/15 04:04:05;0.00;0.00;0.62;0.00;0.00;0.62;1.40;0.80;;;24.40;22.20;;;;;;2268544;61;20433;-63
2023/04/15 04:06:50;0.00;0.00;0.62;0.00;0.00;0.62;2.07;1.30;;;24.40;22.20;;;;;;2265735;61;20413;-63
2023/04/15 04:09:35;0.00;0.00;0.62;0.00;0.00;0.62;1.50;0.83;;;24.40;22.20;;;;;;2268558;61;20375;-62
2023/04/15 04:12:21;0.00;0.00;0.62;0.00;0.00;0.62;1.40;1.03;;;24.40;22.20;;;;;;2269418;61;20924;-65
2023/04/15 04:15:07;0.00;0.00;0.62;0.00;0.00;0.62;1.30;0.90;;;24.40;22.70;;;;;;2269010;61;20363;-65
2023/04/15 04:17:52;0.00;0.00;0.62;0.00;0.00;0.62;1.33;0.90;;;24.40;22.20;;;;;;2268493;61;20437;-62
2023/04/15 04:20:37;0.00;0.00;0.62;0.00;0.00;0.62;1.80;1.00;;;24.40;22.20;;;;;;2268700;61;20782;-63
2023/04/15 04:23:21;0.00;0.00;0.62;0.00;0.00;0.62;1.43;1.10;;;24.40;22.20;;;;;;2269358;61;20382;-64
2023/04/15 04:26:06;0.00;0.00;0.62;0.00;0.00;0.62;1.60;1.17;;;24.40;22.20;;;;;;2268943;61;20417;-64
2023/04/15 04:28:52;0.00;0.00;0.62;0.00;0.00;0.62;1.70;1.10;;;24.40;22.20;;;;;;2268802;61;20803;-62
2023/04/15 04:31:37;0.00;0.00;0.62;0.00;0.00;0.62;1.60;1.10;;;24.40;22.20;;;;;;2268652;61;20871;-63
2023/04/15 04:34:22;0.00;0.00;0.62;0.00;0.00;0.62;1.37;0.90;;;24.40;22.20;;;;;;2268926;61;20962;-62
2023/04/15 04:37:07;0.00;0.00;0.62;0.00;0.00;0.62;1.40;0.90;;;24.40;22.20;;;;;;2265972;61;20383;-64
2023/04/15 04:39:51;0.00;0.00;0.62;0.00;0.00;0.62;1.53;0.90;;;24.40;22.20;;;;;;2268663;61;20891;-65
2023/04/15 04:42:36;0.00;0.00;0.62;0.00;0.00;0.62;1.30;0.80;;;24.40;22.20;;;;;;2268818;61;20421;-62
2023/04/15 04:45:22;0.00;0.00;0.62;0.00;0.00;0.62;1.73;1.03;;;24.30;22.20;;;;;;2269242;61;20371;-64
2023/04/15 04:48:07;0.00;0.00;0.62;0.00;0.00;0.62;1.50;0.90;;;24.40;22.20;;;;;;2269038;61;20475;-63
2023/04/15 04:50:52;0.00;0.00;0.62;0.00;0.00;0.62;1.60;1.00;;;24.40;22.20;;;;;;2268959;61;20414;-64
2023/04/15 04:53:37;0.00;0.00;0.62;0.00;0.00;0.62;1.87;1.10;;;24.40;22.30;;;;;;2269172;61;21014;-64
2023/04/15 04:56:21;0.00;0.00;0.62;0.00;0.00;0.62;1.60;1.10;;;24.30;22.20;;;;;;2269266;61;20452;-65
2023/04/15 04:59:06;0.00;0.00;0.62;0.00;0.00;0.62;1.50;1.10;;;24.40;22.20;;;;;;2268920;61;20398;-63
2023/04/15 05:01:52;0.00;0.00;0.62;0.00;0.00;0.62;1.37;0.90;;;24.30;22.20;;;;;;2269136;61;20845;-64
2023/04/15 05:04:38;0.00;0.00;0.62;0.00;0.00;0.62;1.50;1.03;;;24.30;22.20;;;;;;2269306;61;20363;-65
2023/04/15 05:07:22;0.00;0.00;0.62;0.00;0.00;0.62;1.67;1.03;;;24.30;22.20;;;;;;2266619;61;20475;-65
2023/04/15 05:10:09;0.00;0.00;0.62;0.00;0.00;0.62;1.40;1.00;;;24.30;22.20;;;;;;2268398;61;20359;-65
2023/04/15 05:12:53;0.00;0.00;0.62;0.00;0.00;0.62;1.70;1.00;;;24.30;22.20;;;;;;2268878;61;20359;-64
2023/04/15 05:15:40;0.00;0.00;0.62;0.00;0.00;0.62;1.80;1.10;;;24.30;22.20;;;;;;2268974;61;20451;-65
2023/04/15 05:18:26;0.00;0.00;0.62;0.00;0.00;0.62;1.40;0.93;;;24.30;22.20;;;;;;2269027;61;20463;-65
2023/04/15 05:21:11;0.00;0.00;0.62;0.00;0.00;0.62;1.80;1.10;;;24.30;22.20;;;;;;2268256;61;20367;-65
2023/04/15 05:23:56;0.00;0.00;0.62;0.00;0.00;0.62;1.53;0.90;;;24.30;22.20;;;;;;2265469;61;20354;-65
2023/04/15 05:26:40;0.00;0.00;0.62;0.00;0.00;0.62;1.80;1.10;;;24.30;22.20;;;;;;2269339;61;20366;-63
2023/04/15 05:29:26;0.00;0.00;0.62;0.00;0.00;0.62;1.60;1.00;;;24.30;22.20;;;;;;2268604;61;20414;-64
2023/04/15 05:32:11;0.00;0.00;0.62;0.00;0.00;0.62;2.67;1.17;;;24.30;22.20;;;;;;2265258;61;20436;-65
2023/04/15 05:34:57;0.00;0.00;0.62;0.00;0.00;0.62;1.40;0.90;;;24.30;22.20;;;;;;2268844;61;20925;-65
2023/04/15 05:37:41;0.00;0.00;0.62;0.00;0.00;0.62;1.80;1.20;;;24.30;22.20;;;;;;2268844;61;20383;-65
2023/04/15 05:40:27;0.00;0.00;0.62;0.00;0.00;0.62;1.40;0.90;;;24.30;22.20;;;;;;2268323;61;20774;-66
2023/04/15 05:43:11;0.00;0.00;0.62;0.00;0.00;0.62;1.50;1.00;;;24.30;22.20;;;;;;2265529;61;20383;-63
2023/04/15 05:45:56;0.00;0.00;0.62;0.00;0.00;0.62;1.60;1.10;;;24.30;22.20;;;;;;2268953;61;20363;-65
2023/04/15 05:48:41;0.00;0.00;0.62;0.00;0.00;0.62;1.40;1.00;;;24.30;22.20;;;;;;2268869;61;20390;-64
2023/04/15 05:51:27;0.00;0.00;0.62;0.00;0.00;0.62;1.50;1.00;;;24.30;22.20;;;;;;2269076;61;20363;-65
2023/04/15 05:54:11;0.00;0.00;0.62;0.00;0.00;0.62;1.30;0.90;;;24.20;22.20;;;;;;2268395;61;20433;-66
2023/04/15 05:56:57;0.00;0.00;0.62;0.00;0.00;0.62;1.40;1.00;;;24.30;22.20;;;;;;2268906;61;20891;-64
2023/04/15 05:59:41;0.00;0.00;0.62;0.00;0.00;0.62;1.53;0.90;;;24.20;22.20;;;;;;2268849;61;20358;-62
2023/04/15 06:02:26;0.00;0.00;0.62;0.00;0.00;0.62;1.60;1.00;;;24.20;22.20;;;;;;2265707;61;20889;-65
2023/04/15 06:05:12;0.00;0.00;0.62;0.00;0.00;0.62;1.50;1.00;;;24.20;22.20;;;;;;2268968;61;20367;-65
2023/04/15 06:07:58;0.00;0.00;0.62;0.00;0.00;0.62;1.67;1.00;;;24.20;22.20;;;;;;2268749;61;20391;-64
2023/04/15 06:10:43;0.00;0.00;0.62;0.00;0.00;0.62;1.90;1.10;;;24.20;22.20;;;;;;2268589;61;20363;-65
2023/04/15 06:13:28;0.00;0.00;0.62;0.00;0.00;0.62;2.13;1.00;;;24.20;22.20;;;;;;2268650;61;20367;-63
2023/04/15 06:16:12;0.00;0.00;0.62;0.00;0.00;0.62;1.50;0.90;;;24.20;22.20;;;;;;2268718;61;20497;-65
2023/04/15 06:18:57;0.00;0.00;0.62;0.00;0.00;0.62;1.40;0.90;;;24.20;22.20;;;;;;2268536;61;20444;-62
2023/04/15 06:21:42;0.00;0.00;0.62;0.00;0.00;0.62;1.93;1.10;;;24.20;22.20;;;;;;2268806;61;20355;-65
2023/04/15 06:24:28;0.00;0.00;0.62;0.00;0.00;0.62;1.60;1.07;;;24.20;22.20;;;;;;2269125;61;20497;-64
2023/04/15 06:27:13;0.00;0.00;0.62;0.00;0.00;0.62;1.83;1.10;;;24.20;22.20;;;;;;2268198;61;20806;-65
2023/04/15 06:29:57;0.00;0.00;0.62;0.00;0.00;0.62;1.87;0.93;;;24.20;22.20;;;;;;2265169;61;20367;-64
2023/04/15 06:32:42;0.00;0.00;0.62;0.00;0.00;0.62;1.43;0.97;;;24.20;22.20;;;;;;2268739;61;20371;-64
2023/04/15 06:35:27;0.00;0.00;0.62;0.00;0.00;0.62;1.50;0.80;;;24.20;22.80;;;;;;2268808;61;20395;-63
2023/04/15 06:38:13;0.00;0.00;0.62;0.00;0.00;0.62;1.70;1.10;;;24.20;22.20;;;;;;2268659;61;20805;-66
2023/04/15 06:40:59;0.00;0.00;0.62;0.00;0.00;0.62;1.47;0.90;;;24.20;22.20;;;;;;2268523;61;20404;-64
2023/04/15 06:43:43;0.00;0.00;0.62;0.00;0.00;0.62;1.50;1.07;;;24.20;22.20;;;;;;2265893;61;20385;-64
2023/04/15 06:46:28;0.00;0.00;0.62;0.00;0.00;0.62;1.50;0.90;;;24.20;22.20;;;;;;2268873;61;20366;-64
2023/04/15 06:49:13;0.00;0.00;0.62;0.00;0.00;0.62;1.40;0.80;;;24.20;22.20;;;;;;2265415;61;20383;-65
2023/04/15 06:51:57;0.00;0.00;0.62;0.00;0.00;0.62;1.70;1.00;;;24.10;22.20;;;;;;2269005;61;20502;-65
2023/04/15 06:54:42;0.00;0.00;0.62;0.00;0.00;0.62;1.43;0.90;;;24.20;22.30;;;;;;2268662;61;20363;-63
2023/04/15 06:57:28;0.00;0.00;0.62;0.00;0.00;0.62;1.53;1.10;;;24.20;22.80;;;;;;2269056;61;20361;-63
2023/04/15 07:00:13;0.00;0.00;0.62;0.00;0.00;0.62;1.47;0.90;;;24.10;22.20;;;;;;2268247;61;20871;-64
2023/04/15 07:03:02;0.00;0.00;0.62;0.00;0.00;0.62;1.40;0.90;;;24.20;22.30;;;;;;2269019;61;20360;-63
2023/04/15 07:05:46;0.00;0.00;0.62;0.00;0.00;0.62;1.40;0.93;;;24.10;22.20;;;;;;2268835;61;20886;-65
2023/04/15 07:08:31;0.00;0.00;0.62;0.00;0.00;0.62;1.40;0.80;;;24.10;22.20;;;;;;2268540;61;20805;-64
2023/04/15 07:11:16;0.00;0.00;0.62;0.00;0.00;0.62;1.30;0.77;;;24.10;22.20;;;;;;2268625;61;20363;-65
2023/04/15 07:14:02;0.00;0.00;0.62;0.00;0.00;0.62;1.60;1.10;;;24.10;22.20;;;;;;2268929;61;20638;-64
2023/04/15 07:16:47;0.00;0.00;0.62;0.00;0.00;0.62;1.53;0.90;;;24.10;22.20;;;;;;2265220;61;20364;-65
2023/04/15 07:19:32;0.00;0.00;0.62;0.00;0.00;0.62;1.60;1.00;;;24.10;22.20;;;;;;2268169;61;20437;-65
2023/04/15 07:22:16;0.00;0.00;0.62;0.00;0.00;0.62;1.40;0.80;;;24.10;22.20;;;;;;2269262;61;21017;-65
2023/04/15 07:25:01;0.00;0.00;0.62;0.00;0.00;0.62;1.60;0.93;;;24.10;22.20;;;;;;2269783;61;20379;-64
2023/04/15 07:27:46;0.00;0.00;0.62;0.00;0.00;0.62;1.47;0.80;;;24.10;22.20;;;;;;2269722;61;20448;-65
2023/04/15 07:30:33;0.00;0.00;0.62;0.00;0.00;0.62;1.30;0.80;;;24.10;22.20;;;;;;2268809;61;20363;-63
2023/04/15 07:33:18;0.00;0.00;0.62;0.00;0.00;0.62;1.40;0.80;;;24.10;22.20;;;;;;2269322;61;20456;-65
2023/04/15 07:36:03;0.00;0.00;0.62;0.00;0.00;0.62;1.40;0.80;;;24.10;22.20;;;;;;2269651;61;20483;-64
2023/04/15 07:38:48;0.00;0.00;0.62;0.00;0.00;0.62;1.80;1.10;;;24.10;22.30;;;;;;2269123;61;20374;-63
2023/04/15 07:41:33;0.00;0.00;0.62;0.00;0.00;0.62;1.20;0.70;;;24.10;22.30;;;;;;2269392;61;20395;-65
2023/04/15 07:44:18;0.00;0.00;0.62;0.00;0.00;0.62;1.53;0.80;;;24.10;22.20;;;;;;2269239;61;20358;-64
2023/04/15 07:47:04;0.00;0.00;0.62;0.00;0.00;0.62;1.93;0.90;;;24.10;22.30;;;;;;2269079;61;20449;-63
2023/04/15 07:49:50;0.00;0.00;0.62;0.00;0.00;0.62;1.43;0.80;;;24.10;22.30;;;;;;2268891;61;20775;-61
2023/04/15 07:52:38;0.00;0.00;0.62;0.00;0.00;0.62;1.40;0.70;;;24.10;22.30;;;;;;2266002;61;20363;-65
2023/04/15 07:55:22;0.00;0.00;0.62;0.00;0.00;0.62;1.40;0.80;;;24.10;22.30;;;;;;2269107;61;20426;-64
2023/04/15 07:58:08;0.00;0.00;0.62;0.00;0.00;0.62;1.50;0.90;;;24.10;22.30;;;;;;2268975;61;20386;-65
2023/04/15 08:00:54;0.00;0.00;0.62;0.00;0.00;0.62;1.40;0.90;;;24.10;22.30;;;;;;2268908;61;20395;-65
2023/04/15 08:03:40;0.00;0.00;0.62;0.00;0.00;0.62;1.37;0.73;;;24.10;22.30;;;;;;2268809;61;20367;-65
2023/04/15 08:06:26;0.00;0.00;0.62;0.00;0.00;0.62;1.60;1.10;;;24.00;22.20;;;;;;2269333;61;20986;-65
2023/04/15 08:09:10;0.00;0.00;0.62;0.00;0.00;0.62;1.43;0.93;;;24.10;22.30;;;;;;2269268;61;20398;-64
2023/04/15 08:11:55;0.00;0.00;0.62;0.00;0.00;0.62;1.47;0.87;;;24.10;22.30;;;;;;2269441;61;20358;-63
2023/04/15 08:14:40;0.00;0.00;0.62;0.00;0.00;0.62;1.53;0.93;;;24.10;22.30;;;;;;2268797;61;20891;-64
2023/04/15 08:17:25;0.00;0.00;0.62;0.00;0.00;0.62;1.50;0.90;;;24.10;22.30;;;;;;2269150;61;20390;-63
2023/04/15 08:20:12;0.00;0.00;0.62;0.00;0.00;0.62;1.50;1.00;;;24.10;22.30;;;;;;2268719;61;20367;-64
2023/04/15 08:22:57;0.00;0.00;0.62;0.00;0.00;0.62;1.60;1.00;;;24.10;22.30;;;;;;2268992;61;20363;-63
2023/04/15 08:25:41;0.00;0.00;0.62;0.00;0.00;0.62;1.50;1.00;;;24.10;22.30;;;;;;2269324;61;20409;-63
2023/04/15 08:28:26;0.00;0.00;0.62;0.00;0.00;0.62;1.90;1.30;;;24.10;22.30;;;;;;2269344;61;20386;-65
2023/04/15 08:31:12;0.00;0.00;0.62;0.00;0.00;0.62;2.07;1.30;;;24.10;22.30;;;;;;2269183;61;20362;-65
2023/04/15 08:33:58;0.00;0.00;0.62;0.00;0.00;0.62;1.60;1.03;;;24.00;22.30;;;;;;2268900;61;20479;-62
2023/04/15 08:36:44;0.00;0.00;0.62;0.00;0.00;0.62;2.07;1.43;;;24.10;22.30;;;;;;2269132;61;20379;-63
2023/04/15 08:39:29;0.00;0.00;0.62;0.00;0.00;0.62;1.67;1.30;;;24.10;22.30;;;;;;2268705;61;20919;-65
2023/04/15 08:42:18;0.00;0.00;0.62;0.00;0.00;0.62;2.27;1.70;;;24.10;22.30;;;;;;2266457;61;20346;-64
2023/04/15 08:45:08;0.00;0.00;0.62;0.00;0.00;0.62;2.73;1.77;;;24.00;22.30;;;;;;2269172;61;20362;-61
2023/04/15 08:47:55;0.00;0.00;0.62;0.00;0.00;0.62;2.63;2.43;;;24.00;22.80;;;;;;2268651;61;20479;-65
2023/04/15 08:50:40;0.00;0.00;0.62;0.00;0.00;0.62;2.33;1.67;;;24.00;22.30;;;;;;2267858;61;20887;-67
2023/04/15 08:53:30;0.00;0.00;0.62;0.00;0.00;0.62;4.60;2.73;;;24.00;22.30;;;;;;2268290;61;20363;-66
2023/04/15 08:56:15;0.00;0.00;0.62;0.00;0.00;0.62;5.90;2.27;;;24.00;22.40;;;;;;2268067;61;21014;-67
2023/04/15 08:59:01;0.00;0.00;0.62;0.00;0.00;0.62;3.57;2.73;;;24.00;22.40;;;;;;2267239;61;20398;-66
2023/04/15 09:01:46;0.00;0.00;0.62;0.00;0.00;0.62;3.70;2.93;;;24.00;22.50;;;;;;2268450;61;20355;-66
2023/04/15 09:04:31;0.00;0.00;0.62;0.00;0.00;0.62;3.60;2.80;;;24.00;22.50;;;;;;2268704;61;20370;-66
2023/04/15 09:07:16;0.00;0.00;0.62;0.00;0.00;0.62;3.37;3.00;;;24.00;22.50;;;;;;2267466;61;20387;-64
2023/04/15 09:10:02;0.00;0.00;0.62;0.00;0.00;0.62;4.70;3.83;;;24.00;22.50;;;;;;2267837;61;20953;-69
2023/04/15 09:12:47;0.00;0.00;0.62;0.00;0.00;0.62;3.73;3.30;;;24.00;22.50;;;;;;2268139;61;20371;-68
2023/04/15 09:15:34;0.00;0.00;0.62;0.00;0.00;0.62;4.47;3.53;;;24.10;22.60;;;;;;2268117;61;20458;-67
2023/04/15 09:18:28;0.00;0.00;0.62;0.00;0.00;0.62;3.47;2.80;;;24.00;22.60;;;;;;2268316;61;20379;-68
2023/04/15 09:21:16;0.00;0.00;0.62;0.00;0.00;0.62;4.60;3.60;;;24.10;22.70;;;;;;2268446;61;20371;-66
2023/04/15 09:24:02;0.00;0.00;0.62;0.00;0.00;0.62;4.47;4.07;;;24.10;22.70;;;;;;2268622;61;20401;-67
2023/04/15 09:26:53;0.00;0.00;0.62;0.00;0.00;0.62;5.50;4.07;;;24.10;22.70;;;;;;2268904;61;20486;-66
2023/04/15 09:29:40;0.00;0.00;0.62;0.00;0.00;0.62;4.80;4.03;;;24.10;22.80;;;;;;2267840;61;20907;-65
2023/04/15 09:32:25;0.00;0.00;0.62;0.00;0.00;0.62;5.10;3.80;;;24.10;22.80;;;;;;2265291;61;20362;-66
2023/04/15 09:35:12;0.00;0.00;0.62;0.00;0.00;0.62;4.73;4.10;;;24.10;22.80;;;;;;2268232;61;20876;-66
2023/04/15 09:38:03;0.00;0.00;0.62;0.00;0.00;0.62;6.63;4.30;;;24.10;22.80;;;;;;2268428;61;20387;-66
2023/04/15 09:40:48;0.00;0.00;0.62;0.00;0.00;0.62;5.17;3.90;;;24.10;22.80;;;;;;2264835;61;20364;-65
2023/04/15 09:43:39;0.00;0.00;0.62;0.00;0.00;0.62;4.47;3.70;;;24.10;22.80;;;;;;2267345;61;20944;-66
2023/04/15 09:46:42;0.00;0.00;0.62;0.00;0.00;0.62;5.20;4.37;;;24.10;22.80;;;;;;2268352;61;20454;-65
2023/04/15 09:49:27;0.00;0.00;0.62;0.00;0.00;0.62;5.83;4.77;;;24.10;22.80;;;;;;2268122;61;20379;-65
2023/04/15 09:52:13;0.00;0.00;0.62;0.00;0.00;0.62;5.00;4.50;;;24.10;23.30;;;;;;2268407;61;20374;-65
2023/04/15 09:54:59;0.00;0.00;0.62;0.00;0.00;0.62;5.30;4.80;;;24.10;22.80;;;;;;2268009;61;20359;-65
2023/04/15 09:57:48;0.00;0.00;0.62;0.00;0.00;0.62;6.30;4.90;;;24.10;22.80;;;;;;2268318;61;20708;-65
2023/04/15 10:00:36;0.00;0.00;0.62;0.00;0.00;0.62;6.93;5.20;;;24.10;22.80;;;;;;2265052;61;20359;-65
2023/04/15 10:03:23;0.00;0.00;0.62;0.00;0.00;0.62;5.53;4.83;;;24.10;22.80;;;;;;2268613;61;20447;-66
2023/04/15 10:06:08;0.00;0.00;0.62;0.00;0.00;0.62;6.70;5.13;;;24.10;22.80;;;;;;2265081;61;20359;-65
2023/04/15 10:08:55;0.00;0.00;0.62;0.00;0.00;0.62;5.43;4.93;;;24.10;22.80;;;;;;2267732;61;20415;-64
2023/04/15 10:11:41;0.00;0.00;0.62;0.00;0.00;0.62;6.77;5.50;;;24.10;23.30;;;;;;2268693;61;20367;-66
2023/04/15 10:14:31;0.00;0.00;0.62;0.00;0.00;0.62;6.87;5.30;;;24.10;22.80;;;;;;2267966;61;20394;-65
2023/04/15 10:17:21;0.00;0.00;0.62;0.00;0.00;0.62;6.23;5.20;;;24.10;22.80;;;;;;2264948;61;20367;-64
2023/04/15 10:20:09;0.00;0.00;0.62;0.00;0.00;0.62;7.00;5.83;;;24.10;22.80;;;;;;2267691;61;20474;-68
2023/04/15 10:22:54;0.00;0.00;0.62;0.00;0.00;0.62;6.30;4.93;;;24.10;22.70;;;;;;2265249;61;20367;-65
2023/04/15 10:25:39;0.00;0.00;0.62;0.00;0.00;0.62;6.47;5.30;;;24.10;22.70;;;;;;2268576;61;20359;-63
2023/04/15 10:28:25;0.00;0.00;0.62;0.00;0.00;0.62;6.63;5.20;;;24.10;22.80;;;;;;2267852;61;20399;-65
2023/04/15 10:31:12;0.00;0.00;0.62;0.00;0.00;0.62;7.50;5.33;;;24.10;22.70;;;;;;2267861;61;20942;-65
2023/04/15 10:34:02;0.00;0.00;0.62;0.00;0.00;0.62;6.30;5.67;;;24.10;22.70;;;;;;2268216;61;20837;-65
2023/04/15 10:36:47;0.00;0.00;0.62;0.00;0.00;0.62;7.40;5.70;;;24.10;22.70;;;;;;2268183;61;20455;-65
2023/04/15 10:39:40;0.00;0.00;0.62;0.00;0.00;0.62;6.03;5.43;;;24.10;22.70;;;;;;2268136;61;21240;-66
2023/04/15 10:42:33;0.00;0.00;0.62;0.00;0.00;0.62;5.90;5.30;;;24.20;22.80;;;;;;2268485;61;20420;-62
2023/04/15 10:45:18;0.00;0.00;0.62;0.00;0.00;0.62;6.03;5.43;;;24.10;22.70;;;;;;2268067;61;20878;-67
2023/04/15 10:48:06;0.00;0.00;0.62;0.00;0.00;0.62;5.63;5.07;;;24.10;22.80;;;;;;2268325;61;20399;-66
2023/04/15 10:50:59;0.00;0.00;0.62;0.00;0.00;0.62;6.33;5.63;;;24.10;22.80;;;;;;2267344;61;20403;-65
2023/04/15 10:53:44;0.00;0.00;0.62;0.00;0.00;0.62;6.37;5.20;;;24.10;22.80;;;;;;2264721;61;20915;-65